Aviation Digital Data Service (ADDS)

Output produced by METARs form (1718 UTC 30 October 2020)
found at http://www.aviationweather.gov/metar/data/
 
KTLH 301653Z 34011KT 10SM FEW030 17/09 A3009 RMK AO2 SLP187 T01720089 $
KTLH 301120Z 3012/3112 34009KT P6SM SKC